Time;durP1;ratioP1;P1;durP2;ratioP2;P2;SDS_P1;SDS_P2;PMS_P1;PMS_P2;Temp;Humidity;BMP_temperature;BMP_pressure;BME280_temperature;BME280_humidity;BME280_pressure;Samples;Min_cycle;Max_cycle;Signal;HPM_P1;HPM_P2
2023/12/22 00:01:36;;;;;;;0.88;0.35;;;;;;;;;;5055948;28;20385;-80
2023/12/22 00:04:02;;;;;;;0.98;0.40;;;;;;;;;;5055782;28;20414;-80
2023/12/22 00:06:27;;;;;;;0.98;0.40;;;;;;;;;;5056194;28;20379;-80
2023/12/22 00:08:53;;;;;;;1.77;0.50;;;;;;;;;;5056478;28;20468;-80
2023/12/22 00:11:19;;;;;;;0.93;0.70;;;;;;;;;;5074067;28;20395;-80
2023/12/22 00:13:45;;;;;;;1.40;0.50;;;;;;;;;;5076443;28;20784;-80
2023/12/22 00:16:12;;;;;;;1.40;0.40;;;;;;;;;;5075993;28;20445;-81
2023/12/22 00:18:38;;;;;;;1.70;0.52;;;;;;;;;;5075669;28;20376;-80
2023/12/22 00:21:04;;;;;;;0.85;0.50;;;;;;;;;;5076422;28;20417;-81
2023/12/22 00:23:32;;;;;;;1.75;0.40;;;;;;;;;;5076482;28;20788;-80
2023/12/22 00:25:58;;;;;;;1.48;0.40;;;;;;;;;;5075845;28;20383;-80
2023/12/22 00:28:24;;;;;;;0.73;0.30;;;;;;;;;;5075478;28;20384;-81
2023/12/22 00:30:50;;;;;;;0.60;0.30;;;;;;;;;;5075793;28;20396;-80
2023/12/22 00:33:16;;;;;;;0.50;0.20;;;;;;;;;;5075862;28;20853;-81
2023/12/22 00:35:42;;;;;;;0.90;0.30;;;;;;;;;;5075336;28;20407;-80
2023/12/22 00:38:08;;;;;;;1.30;0.30;;;;;;;;;;5075866;28;20390;-81
2023/12/22 00:40:34;;;;;;;1.10;0.20;;;;;;;;;;5074829;28;20371;-81
2023/12/22 00:43:00;;;;;;;1.30;0.40;;;;;;;;;;5075175;28;20406;-81
2023/12/22 00:45:26;;;;;;;0.82;0.20;;;;;;;;;;5075218;28;20380;-80
2023/12/22 00:47:52;;;;;;;0.47;0.20;;;;;;;;;;5075315;28;20446;-80
2023/12/22 00:50:18;;;;;;;0.80;0.32;;;;;;;;;;5075176;28;20415;-80
2023/12/22 00:52:44;;;;;;;0.75;0.40;;;;;;;;;;5075175;28;20387;-80
2023/12/22 00:55:10;;;;;;;0.40;0.25;;;;;;;;;;5075512;28;20387;-80
2023/12/22 00:57:36;;;;;;;1.05;0.40;;;;;;;;;;5075045;28;20380;-80
2023/12/22 01:00:04;;;;;;;0.50;0.30;;;;;;;;;;5075944;28;20390;-81
2023/12/22 01:02:30;;;;;;;2.22;0.50;;;;;;;;;;5075598;28;20375;-80
2023/12/22 01:04:56;;;;;;;0.87;0.40;;;;;;;;;;5075464;28;20578;-80
2023/12/22 01:07:22;;;;;;;0.88;0.40;;;;;;;;;;5057743;28;20403;-80
2023/12/22 01:09:48;;;;;;;0.88;0.40;;;;;;;;;;5075204;28;20406;-80
2023/12/22 01:12:14;;;;;;;1.03;0.33;;;;;;;;;;5075599;28;20450;-80
2023/12/22 01:14:40;;;;;;;1.67;0.50;;;;;;;;;;5074690;28;20408;-80
2023/12/22 01:17:07;;;;;;;1.30;0.50;;;;;;;;;;5075446;28;20785;-80
2023/12/22 01:19:33;;;;;;;1.03;0.30;;;;;;;;;;5075075;28;20769;-80
2023/12/22 01:21:59;;;;;;;0.63;0.40;;;;;;;;;;5075050;28;20372;-81
2023/12/22 01:24:25;;;;;;;1.10;0.40;;;;;;;;;;5075088;28;20434;-80
2023/12/22 01:26:51;;;;;;;1.07;0.47;;;;;;;;;;5074840;28;20408;-80
2023/12/22 01:29:17;;;;;;;1.48;0.52;;;;;;;;;;5074474;28;20841;-81
2023/12/22 01:31:43;;;;;;;1.27;0.32;;;;;;;;;;5074835;28;20403;-80
2023/12/22 01:34:09;;;;;;;2.13;0.40;;;;;;;;;;5074834;28;20372;-80
2023/12/22 01:36:35;;;;;;;1.25;0.45;;;;;;;;;;5074255;28;20383;-80
2023/12/22 01:39:01;;;;;;;2.78;0.50;;;;;;;;;;5074430;28;20376;-80
2023/12/22 01:41:27;;;;;;;1.10;0.40;;;;;;;;;;5074817;28;20386;-80
2023/12/22 01:43:53;;;;;;;1.42;0.40;;;;;;;;;;5075649;28;20402;-80
2023/12/22 01:46:19;;;;;;;1.20;0.40;;;;;;;;;;5074249;28;20431;-80
2023/12/22 01:48:45;;;;;;;0.88;0.28;;;;;;;;;;5074042;28;20411;-80
2023/12/22 01:51:11;;;;;;;1.30;0.25;;;;;;;;;;5074483;28;20406;-80
2023/12/22 01:53:37;;;;;;;1.40;0.40;;;;;;;;;;5077360;28;20403;-80
2023/12/22 01:56:03;;;;;;;1.67;0.50;;;;;;;;;;5073650;28;20381;-80
2023/12/22 01:58:31;;;;;;;1.23;0.40;;;;;;;;;;5058463;28;20434;-80
2023/12/22 02:00:57;;;;;;;0.70;0.40;;;;;;;;;;5058668;28;20381;-80
2023/12/22 02:03:23;;;;;;;1.58;0.40;;;;;;;;;;5058185;28;20383;-80
2023/12/22 02:05:49;;;;;;;1.70;0.35;;;;;;;;;;5058541;28;20859;-80
2023/12/22 02:08:18;;;;;;;1.83;0.43;;;;;;;;;;5077639;28;20841;-80
2023/12/22 02:10:44;;;;;;;0.80;0.40;;;;;;;;;;5078024;28;20399;-80
2023/12/22 02:13:11;;;;;;;1.50;0.50;;;;;;;;;;5059782;28;20387;-80
2023/12/22 02:15:37;;;;;;;1.80;0.60;;;;;;;;;;5077856;28;20800;-80
2023/12/22 02:18:06;;;;;;;1.98;0.70;;;;;;;;;;5060059;28;20391;-80
2023/12/22 02:20:32;;;;;;;1.80;0.50;;;;;;;;;;5077789;28;20388;-80
2023/12/22 02:22:58;;;;;;;1.77;0.50;;;;;;;;;;5077821;28;20391;-80
2023/12/22 02:25:24;;;;;;;2.38;0.60;;;;;;;;;;5059673;28;20395;-80
2023/12/22 02:27:53;;;;;;;2.15;0.50;;;;;;;;;;5077890;28;20754;-80
2023/12/22 02:30:22;;;;;;;1.90;0.50;;;;;;;;;;5077469;28;20395;-80
2023/12/22 02:32:51;;;;;;;1.20;0.50;;;;;;;;;;5077573;28;20383;-80
2023/12/22 02:35:24;;;;;;;2.57;0.60;;;;;;;;;;5077294;28;20388;-80
2023/12/22 02:37:51;;;;;;;1.92;0.52;;;;;;;;;;5077135;28;20394;-80
2023/12/22 02:40:18;;;;;;;1.95;0.63;;;;;;;;;;5077417;28;20388;-80
2023/12/22 02:42:44;;;;;;;1.63;0.50;;;;;;;;;;5077591;28;20469;-80
2023/12/22 02:45:15;;;;;;;2.00;0.50;;;;;;;;;;5077012;28;20415;-80
2023/12/22 02:47:41;;;;;;;1.77;0.57;;;;;;;;;;5077393;28;20388;-80
2023/12/22 02:50:08;;;;;;;1.95;0.68;;;;;;;;;;5077528;28;20435;-80
2023/12/22 02:52:35;;;;;;;1.35;0.40;;;;;;;;;;5077173;28;20386;-80
2023/12/22 02:55:01;;;;;;;1.25;0.52;;;;;;;;;;5077429;28;20376;-80
2023/12/22 02:57:27;;;;;;;0.73;0.30;;;;;;;;;;5077149;28;20391;-80
2023/12/22 02:59:53;;;;;;;0.70;0.30;;;;;;;;;;5077591;28;20383;-80
2023/12/22 03:02:19;;;;;;;1.13;0.40;;;;;;;;;;5076949;28;20711;-80
2023/12/22 03:04:46;;;;;;;0.95;0.50;;;;;;;;;;5076979;28;20509;-80
2023/12/22 03:07:12;;;;;;;1.70;0.40;;;;;;;;;;5076922;28;20406;-80
2023/12/22 03:09:38;;;;;;;0.63;0.32;;;;;;;;;;5076537;28;20388;-80
2023/12/22 03:12:04;;;;;;;1.40;0.40;;;;;;;;;;5076751;28;20407;-80
2023/12/22 03:14:31;;;;;;;1.58;0.40;;;;;;;;;;5076537;28;20372;-80
2023/12/22 03:16:57;;;;;;;1.73;0.30;;;;;;;;;;5076789;28;20375;-80
2023/12/22 03:19:23;;;;;;;2.33;0.57;;;;;;;;;;5076677;28;20391;-80
2023/12/22 03:21:49;;;;;;;2.00;0.60;;;;;;;;;;5077048;28;20383;-80
2023/12/22 03:24:15;;;;;;;2.03;0.60;;;;;;;;;;5076583;28;20415;-81
2023/12/22 03:26:41;;;;;;;1.95;0.55;;;;;;;;;;5076938;28;20383;-81
2023/12/22 03:29:07;;;;;;;2.10;0.50;;;;;;;;;;5077177;28;20387;-81
2023/12/22 03:31:33;;;;;;;0.75;0.30;;;;;;;;;;5077610;28;20457;-81
2023/12/22 03:33:59;;;;;;;0.70;0.27;;;;;;;;;;5076923;28;20835;-80
2023/12/22 03:36:25;;;;;;;2.50;0.50;;;;;;;;;;5077128;28;20418;-80
2023/12/22 03:38:51;;;;;;;1.30;0.45;;;;;;;;;;5076319;28;20376;-80
2023/12/22 03:41:17;;;;;;;1.17;0.40;;;;;;;;;;5076364;28;20400;-80
2023/12/22 03:43:43;;;;;;;2.00;0.40;;;;;;;;;;5076650;28;20390;-80
2023/12/22 03:46:09;;;;;;;1.30;0.50;;;;;;;;;;5076169;28;20490;-80
2023/12/22 03:48:35;;;;;;;1.80;0.57;;;;;;;;;;5075917;28;20461;-81
2023/12/22 03:51:01;;;;;;;1.75;0.60;;;;;;;;;;5076343;28;20415;-80
2023/12/22 03:53:27;;;;;;;1.95;0.52;;;;;;;;;;5073631;28;20409;-80
2023/12/22 03:55:53;;;;;;;1.10;0.40;;;;;;;;;;5056119;28;20465;-80
2023/12/22 03:58:19;;;;;;;2.97;0.63;;;;;;;;;;5056040;28;20401;-80
2023/12/22 04:00:45;;;;;;;1.60;0.57;;;;;;;;;;5055946;28;20385;-81
2023/12/22 04:03:11;;;;;;;1.23;0.47;;;;;;;;;;5067061;28;20383;-80
2023/12/22 04:05:37;;;;;;;2.07;0.60;;;;;;;;;;5076319;28;20769;-80
2023/12/22 04:08:03;;;;;;;2.25;0.60;;;;;;;;;;5075741;28;20382;-80
2023/12/22 04:10:29;;;;;;;1.67;0.52;;;;;;;;;;5075366;28;20754;-80
2023/12/22 04:12:55;;;;;;;1.60;0.50;;;;;;;;;;5076292;28;20376;-80
2023/12/22 04:15:21;;;;;;;1.45;0.57;;;;;;;;;;5075789;28;20433;-80
2023/12/22 04:17:47;;;;;;;1.73;0.60;;;;;;;;;;5075569;28;20459;-80
2023/12/22 04:20:13;;;;;;;2.13;0.50;;;;;;;;;;5075677;28;20383;-80
2023/12/22 04:22:39;;;;;;;1.42;0.50;;;;;;;;;;5075813;28;20371;-80
2023/12/22 04:25:06;;;;;;;1.20;0.47;;;;;;;;;;5075633;28;20380;-80
2023/12/22 04:27:32;;;;;;;1.75;0.55;;;;;;;;;;5075748;28;20463;-80
2023/12/22 04:29:58;;;;;;;1.70;0.32;;;;;;;;;;5075860;28;20403;-80
2023/12/22 04:32:24;;;;;;;1.83;0.68;;;;;;;;;;5075534;28;20706;-80
2023/12/22 04:34:50;;;;;;;2.38;0.70;;;;;;;;;;5075656;28;20379;-80
2023/12/22 04:37:16;;;;;;;4.70;0.60;;;;;;;;;;5075498;28;20768;-80
2023/12/22 04:39:42;;;;;;;2.17;0.63;;;;;;;;;;5075662;28;20400;-80
2023/12/22 04:42:08;;;;;;;1.40;0.50;;;;;;;;;;5075029;28;20862;-80
2023/12/22 04:44:34;;;;;;;2.70;0.63;;;;;;;;;;5075641;28;20413;-80
2023/12/22 04:47:00;;;;;;;2.03;0.70;;;;;;;;;;5075147;28;20380;-80
2023/12/22 04:49:26;;;;;;;1.77;0.60;;;;;;;;;;5075450;28;20422;-80
2023/12/22 04:51:52;;;;;;;3.72;0.90;;;;;;;;;;5075041;28;20919;-80
2023/12/22 04:54:18;;;;;;;3.08;0.80;;;;;;;;;;5075216;28;20380;-80
2023/12/22 04:56:44;;;;;;;2.53;0.82;;;;;;;;;;5074612;28;20872;-81
2023/12/22 04:59:10;;;;;;;2.65;0.80;;;;;;;;;;5074477;28;20376;-81
2023/12/22 05:01:36;;;;;;;2.77;0.70;;;;;;;;;;5074812;28;20444;-81
2023/12/22 05:04:02;;;;;;;1.75;0.40;;;;;;;;;;5074748;28;20449;-81
2023/12/22 05:06:31;;;;;;;2.30;0.50;;;;;;;;;;5074340;28;20384;-81
2023/12/22 05:08:57;;;;;;;2.58;0.50;;;;;;;;;;5074488;28;20407;-81
2023/12/22 05:11:23;;;;;;;1.73;0.52;;;;;;;;;;5056799;28;20403;-82
2023/12/22 05:13:49;;;;;;;1.95;0.65;;;;;;;;;;5074795;28;20378;-80
2023/12/22 05:16:15;;;;;;;1.67;0.67;;;;;;;;;;5074774;28;20722;-82
2023/12/22 05:18:41;;;;;;;1.92;0.70;;;;;;;;;;5074608;28;20433;-81
2023/12/22 05:21:07;;;;;;;1.50;0.50;;;;;;;;;;5074704;28;20435;-80
2023/12/22 05:23:33;;;;;;;2.47;0.50;;;;;;;;;;5074356;28;20392;-81
2023/12/22 05:25:59;;;;;;;2.22;0.60;;;;;;;;;;5074515;28;20387;-80
2023/12/22 05:28:25;;;;;;;2.30;0.52;;;;;;;;;;5074335;28;20372;-80
2023/12/22 05:30:51;;;;;;;1.02;0.47;;;;;;;;;;5074468;28;20403;-80
2023/12/22 05:33:17;;;;;;;2.20;0.60;;;;;;;;;;5074260;28;20386;-80
2023/12/22 05:35:43;;;;;;;1.88;0.40;;;;;;;;;;5074461;28;20371;-80
2023/12/22 05:38:09;;;;;;;1.80;0.50;;;;;;;;;;5074445;28;20372;-80
2023/12/22 05:40:35;;;;;;;1.45;0.60;;;;;;;;;;5074300;28;20781;-81
2023/12/22 05:43:01;;;;;;;1.63;0.70;;;;;;;;;;5074178;28;20384;-80
2023/12/22 05:45:27;;;;;;;3.50;0.40;;;;;;;;;;5074176;28;20447;-81
2023/12/22 05:47:53;;;;;;;2.05;0.60;;;;;;;;;;5062696;28;20401;-81
2023/12/22 05:50:19;;;;;;;2.17;0.60;;;;;;;;;;5071234;28;20471;-80
2023/12/22 05:52:45;;;;;;;1.58;0.60;;;;;;;;;;5074074;28;20454;-81
2023/12/22 05:55:11;;;;;;;2.45;0.80;;;;;;;;;;5073931;28;20383;-81
2023/12/22 05:57:37;;;;;;;1.60;0.60;;;;;;;;;;5074214;28;20409;-81
2023/12/22 06:00:07;;;;;;;1.90;0.67;;;;;;;;;;5074238;28;20375;-81
2023/12/22 06:02:33;;;;;;;1.77;0.53;;;;;;;;;;5073844;28;20384;-81
2023/12/22 06:04:59;;;;;;;1.77;0.57;;;;;;;;;;5073755;28;20522;-81
2023/12/22 06:07:25;;;;;;;1.58;0.68;;;;;;;;;;5073835;28;20430;-81
2023/12/22 06:09:51;;;;;;;0.85;0.40;;;;;;;;;;5073736;28;20426;-80
2023/12/22 06:12:17;;;;;;;1.45;0.30;;;;;;;;;;5073665;28;20789;-81
2023/12/22 06:14:43;;;;;;;1.30;0.53;;;;;;;;;;5073894;28;20372;-81
2023/12/22 06:17:09;;;;;;;3.00;1.00;;;;;;;;;;5073401;28;20926;-80
2023/12/22 06:19:38;;;;;;;1.27;0.60;;;;;;;;;;5074007;28;20458;-81
2023/12/22 06:22:04;;;;;;;1.70;0.70;;;;;;;;;;5073913;28;20383;-81
2023/12/22 06:24:30;;;;;;;2.25;0.73;;;;;;;;;;5073926;28;20406;-80
2023/12/22 06:26:56;;;;;;;2.07;0.77;;;;;;;;;;5073535;28;20471;-81
2023/12/22 06:29:22;;;;;;;2.80;0.75;;;;;;;;;;5073310;28;20851;-80
2023/12/22 06:31:50;;;;;;;1.33;0.70;;;;;;;;;;5073062;28;20399;-80
2023/12/22 06:34:16;;;;;;;3.20;0.80;;;;;;;;;;5073898;28;20868;-82
2023/12/22 06:36:42;;;;;;;3.13;0.80;;;;;;;;;;5074377;28;20418;-80
2023/12/22 06:39:09;;;;;;;3.60;0.93;;;;;;;;;;5076179;28;20384;-80
2023/12/22 06:41:35;;;;;;;2.67;0.90;;;;;;;;;;5076875;28;20378;-80
2023/12/22 06:44:01;;;;;;;2.60;1.20;;;;;;;;;;5077008;28;20383;-80
2023/12/22 06:46:27;;;;;;;3.97;1.20;;;;;;;;;;5077281;28;20406;-80
2023/12/22 06:48:54;;;;;;;4.47;1.55;;;;;;;;;;5077257;28;20403;-80
2023/12/22 06:51:20;;;;;;;4.93;2.03;;;;;;;;;;5077049;28;20400;-81
2023/12/22 06:53:46;;;;;;;4.40;1.70;;;;;;;;;;5077431;28;20372;-81
2023/12/22 06:56:22;;;;;;;4.45;1.45;;;;;;;;;;5077048;28;20388;-81
2023/12/22 06:58:49;;;;;;;4.05;1.65;;;;;;;;;;5076750;28;20876;-80
2023/12/22 07:01:21;;;;;;;5.88;1.55;;;;;;;;;;5077194;28;20768;-80
2023/12/22 07:03:50;;;;;;;3.90;1.40;;;;;;;;;;5076938;28;20444;-81
2023/12/22 07:06:17;;;;;;;4.65;1.58;;;;;;;;;;5076582;28;20426;-80
2023/12/22 07:08:43;;;;;;;5.32;1.40;;;;;;;;;;5077544;28;20408;-79
2023/12/22 07:11:09;;;;;;;4.32;1.40;;;;;;;;;;5077680;28;20403;-79
2023/12/22 07:13:35;;;;;;;2.88;1.30;;;;;;;;;;5076794;28;20402;-79
2023/12/22 07:16:02;;;;;;;4.93;1.48;;;;;;;;;;5076751;28;20861;-81
2023/12/22 07:18:31;;;;;;;6.28;1.95;;;;;;;;;;5077154;28;20416;-80
2023/12/22 07:20:58;;;;;;;4.05;1.23;;;;;;;;;;5077104;28;20475;-79
2023/12/22 07:23:24;;;;;;;5.90;1.45;;;;;;;;;;5076839;28;20463;-79
2023/12/22 07:25:50;;;;;;;7.38;1.73;;;;;;;;;;5077711;28;20375;-82
2023/12/22 07:28:16;;;;;;;5.13;1.50;;;;;;;;;;5077025;28;20836;-80
2023/12/22 07:30:42;;;;;;;5.22;1.60;;;;;;;;;;5077042;28;20765;-80
2023/12/22 07:33:08;;;;;;;4.93;1.65;;;;;;;;;;5077227;28;20375;-80
2023/12/22 07:35:34;;;;;;;4.38;1.40;;;;;;;;;;5075988;28;20418;-80
2023/12/22 07:38:02;;;;;;;5.05;1.33;;;;;;;;;;5076791;28;20380;-80
2023/12/22 07:40:31;;;;;;;2.80;1.02;;;;;;;;;;5077186;28;20372;-81
2023/12/22 07:42:57;;;;;;;4.97;1.35;;;;;;;;;;5074530;28;20406;-80
2023/12/22 07:45:24;;;;;;;4.68;1.65;;;;;;;;;;5057557;28;20740;-81
2023/12/22 07:47:49;;;;;;;4.57;1.43;;;;;;;;;;5056799;28;20434;-81
2023/12/22 07:50:16;;;;;;;4.05;1.35;;;;;;;;;;5055148;28;20504;-81
2023/12/22 07:52:43;;;;;;;6.18;0.90;;;;;;;;;;5057091;28;20374;-80
2023/12/22 07:55:10;;;;;;;3.40;1.20;;;;;;;;;;5056764;28;20967;-81
2023/12/22 07:57:36;;;;;;;4.32;1.15;;;;;;;;;;5038863;28;20374;-81
2023/12/22 08:00:03;;;;;;;2.75;1.23;;;;;;;;;;5074914;28;20388;-81
2023/12/22 08:02:29;;;;;;;4.60;1.55;;;;;;;;;;5076270;28;20402;-80
2023/12/22 08:04:55;;;;;;;6.20;1.58;;;;;;;;;;5075910;28;20379;-81
2023/12/22 08:07:21;;;;;;;3.17;1.10;;;;;;;;;;5076178;28;20372;-80
2023/12/22 08:09:47;;;;;;;3.35;1.35;;;;;;;;;;5075100;28;20525;-80
2023/12/22 08:12:13;;;;;;;5.22;1.48;;;;;;;;;;5075650;28;20873;-80
2023/12/22 08:14:40;;;;;;;3.90;1.40;;;;;;;;;;5075427;28;20402;-80
2023/12/22 08:17:06;;;;;;;5.47;1.65;;;;;;;;;;5057612;28;20466;-82
2023/12/22 08:19:32;;;;;;;4.78;1.50;;;;;;;;;;5076503;28;20383;-81
2023/12/22 08:21:58;;;;;;;6.80;1.85;;;;;;;;;;5057927;28;20430;-80
2023/12/22 08:24:24;;;;;;;5.05;1.60;;;;;;;;;;5075638;28;20383;-80
2023/12/22 08:26:51;;;;;;;4.70;1.58;;;;;;;;;;5075371;28;20380;-81
2023/12/22 08:29:18;;;;;;;5.82;1.52;;;;;;;;;;5075272;28;20391;-80
2023/12/22 08:31:44;;;;;;;6.43;1.40;;;;;;;;;;5075779;28;20774;-81
2023/12/22 08:34:10;;;;;;;4.65;1.20;;;;;;;;;;5075712;28;20443;-80
2023/12/22 08:36:36;;;;;;;5.65;1.63;;;;;;;;;;5075213;28;20372;-81
2023/12/22 08:39:04;;;;;;;3.67;1.40;;;;;;;;;;5075125;28;20379;-81
2023/12/22 08:41:35;;;;;;;4.18;1.15;;;;;;;;;;5074949;28;20387;-80
2023/12/22 08:44:01;;;;;;;3.20;1.10;;;;;;;;;;5074705;28;20421;-80
2023/12/22 08:46:27;;;;;;;4.40;1.27;;;;;;;;;;5074413;28;20494;-81
2023/12/22 08:48:53;;;;;;;3.75;1.38;;;;;;;;;;5073368;28;20417;-81
2023/12/22 08:51:19;;;;;;;4.97;1.37;;;;;;;;;;5065052;28;20417;-81
2023/12/22 08:53:45;;;;;;;4.15;1.50;;;;;;;;;;5037171;28;20390;-81
2023/12/22 08:56:11;;;;;;;4.57;1.38;;;;;;;;;;5055586;28;20893;-81
2023/12/22 08:58:37;;;;;;;5.70;1.50;;;;;;;;;;5055368;28;20463;-81
2023/12/22 09:01:03;;;;;;;5.45;2.42;;;;;;;;;;5055197;28;20389;-80
2023/12/22 09:03:30;;;;;;;9.68;3.78;;;;;;;;;;5055058;28;20445;-82
2023/12/22 09:05:56;;;;;;;4.18;1.48;;;;;;;;;;5054902;28;20388;-81
2023/12/22 09:08:22;;;;;;;5.18;1.70;;;;;;;;;;5054666;28;20484;-81
2023/12/22 09:10:49;;;;;;;4.67;1.43;;;;;;;;;;5054507;28;20409;-80
2023/12/22 09:13:15;;;;;;;7.13;1.77;;;;;;;;;;5055257;28;20457;-80
2023/12/22 09:15:41;;;;;;;5.88;1.52;;;;;;;;;;5054698;28;20396;-81
2023/12/22 09:18:07;;;;;;;4.45;1.92;;;;;;;;;;5054880;28;20378;-80
2023/12/22 09:20:33;;;;;;;6.25;1.50;;;;;;;;;;5054789;28;20751;-80
2023/12/22 09:22:59;;;;;;;4.30;1.83;;;;;;;;;;5054838;28;20386;-81
2023/12/22 09:25:26;;;;;;;5.05;1.70;;;;;;;;;;5036756;28;20385;-81
2023/12/22 09:27:52;;;;;;;8.65;2.35;;;;;;;;;;5054206;28;20797;-80
2023/12/22 09:30:18;;;;;;;6.68;1.73;;;;;;;;;;5056580;28;20421;-83
2023/12/22 09:32:44;;;;;;;4.43;1.40;;;;;;;;;;5055920;28;20399;-81
2023/12/22 09:35:10;;;;;;;3.55;1.63;;;;;;;;;;5056062;28;20436;-80
2023/12/22 09:37:36;;;;;;;4.10;1.60;;;;;;;;;;5056783;28;20396;-80
2023/12/22 09:40:02;;;;;;;5.20;1.80;;;;;;;;;;5055645;28;20393;-80
2023/12/22 09:42:28;;;;;;;4.97;1.58;;;;;;;;;;5037778;28;20473;-80
2023/12/22 09:44:57;;;;;;;6.63;1.77;;;;;;;;;;5056006;28;20385;-80
2023/12/22 09:47:24;;;;;;;6.63;1.75;;;;;;;;;;5056068;28;20393;-79
2023/12/22 09:49:50;;;;;;;5.05;2.00;;;;;;;;;;5057529;28;20424;-81
2023/12/22 09:52:16;;;;;;;8.65;1.95;;;;;;;;;;5055771;28;20373;-80
2023/12/22 09:54:43;;;;;;;5.20;1.80;;;;;;;;;;5054940;28;21124;-80
2023/12/22 09:57:09;;;;;;;6.67;1.93;;;;;;;;;;5055853;28;20450;-80
2023/12/22 09:59:36;;;;;;;7.70;2.10;;;;;;;;;;5065784;28;20384;-80
2023/12/22 10:02:02;;;;;;;7.15;2.10;;;;;;;;;;5077178;28;20443;-81
2023/12/22 10:04:29;;;;;;;7.85;2.28;;;;;;;;;;5078401;28;20383;-80
2023/12/22 10:07:00;;;;;;;7.60;2.05;;;;;;;;;;5077861;28;20375;-81
2023/12/22 10:09:27;;;;;;;7.97;2.10;;;;;;;;;;5077398;28;20380;-81
2023/12/22 10:11:53;;;;;;;6.75;2.03;;;;;;;;;;5078352;28;20865;-81
2023/12/22 10:14:22;;;;;;;7.15;2.17;;;;;;;;;;5081378;28;20380;-80
2023/12/22 10:16:52;;;;;;;9.80;2.28;;;;;;;;;;5083199;28;20429;-81
2023/12/22 10:19:18;;;;;;;9.53;2.20;;;;;;;;;;5082088;28;20387;-82
2023/12/22 10:21:44;;;;;;;6.55;2.28;;;;;;;;;;5079590;28;20407;-78
2023/12/22 10:24:30;;;;;;;6.75;2.13;;;;;;;;;;5079324;28;20862;-83
2023/12/22 10:26:56;;;;;;;7.80;2.05;;;;;;;;;;5078012;28;20384;-83
2023/12/22 10:29:22;;;;;;;6.40;2.15;;;;;;;;;;5078349;28;20383;-82
2023/12/22 10:31:47;;;;;;;10.07;2.13;;;;;;;;;;5077609;28;20468;-82
2023/12/22 10:34:13;;;;;;;6.85;2.38;;;;;;;;;;5078031;28;20854;-81
2023/12/22 10:36:39;;;;;;;9.35;2.72;;;;;;;;;;5077533;28;20383;-82
2023/12/22 10:39:05;;;;;;;6.63;2.00;;;;;;;;;;5079710;28;20383;-82
2023/12/22 10:41:32;;;;;;;5.15;1.58;;;;;;;;;;5078343;28;20493;-82
2023/12/22 10:43:59;;;;;;;5.97;1.73;;;;;;;;;;5082121;28;20757;-81
2023/12/22 10:46:25;;;;;;;6.70;2.17;;;;;;;;;;5081187;28;20368;-80
2023/12/22 10:48:53;;;;;;;6.88;1.90;;;;;;;;;;5080518;28;20498;-81
2023/12/22 10:51:19;;;;;;;5.65;1.70;;;;;;;;;;5080064;28;20427;-81
2023/12/22 10:53:45;;;;;;;5.55;1.75;;;;;;;;;;5079986;28;20384;-81
2023/12/22 10:56:12;;;;;;;5.35;1.70;;;;;;;;;;5080366;28;20483;-80
2023/12/22 10:58:39;;;;;;;6.72;1.85;;;;;;;;;;5079198;28;20384;-81
2023/12/22 11:01:05;;;;;;;5.13;1.70;;;;;;;;;;5080944;28;20386;-82
2023/12/22 11:03:34;;;;;;;4.55;1.73;;;;;;;;;;5079883;28;20380;-80
2023/12/22 11:06:02;;;;;;;5.72;1.77;;;;;;;;;;5080433;28;20372;-81
2023/12/22 11:08:29;;;;;;;5.85;1.42;;;;;;;;;;5080159;28;20392;-81
2023/12/22 11:10:57;;;;;;;6.65;1.55;;;;;;;;;;5061597;28;20403;-81
2023/12/22 11:13:24;;;;;;;5.13;1.50;;;;;;;;;;5078982;28;20502;-81
2023/12/22 11:15:50;;;;;;;4.35;1.55;;;;;;;;;;5079780;28;20403;-80
2023/12/22 11:18:17;;;;;;;6.27;1.30;;;;;;;;;;5079302;28;20380;-81
2023/12/22 11:20:44;;;;;;;6.30;1.45;;;;;;;;;;5079540;28;20383;-81
2023/12/22 11:23:10;;;;;;;3.47;1.10;;;;;;;;;;5078685;28;20407;-80
2023/12/22 11:25:37;;;;;;;3.85;1.33;;;;;;;;;;5080828;28;20380;-80
2023/12/22 11:28:06;;;;;;;4.17;1.10;;;;;;;;;;5080486;28;20444;-80
2023/12/22 11:30:32;;;;;;;4.60;1.23;;;;;;;;;;5080474;28;20446;-82
2023/12/22 11:32:58;;;;;;;4.03;1.10;;;;;;;;;;5082683;28;20391;-81
2023/12/22 11:35:24;;;;;;;4.70;1.23;;;;;;;;;;5082849;28;20387;-80
2023/12/22 11:37:51;;;;;;;3.78;1.20;;;;;;;;;;5080783;28;20387;-82
2023/12/22 11:40:17;;;;;;;4.25;1.17;;;;;;;;;;5079727;28;20744;-81
2023/12/22 11:42:44;;;;;;;4.47;1.35;;;;;;;;;;5080047;28;20384;-81
2023/12/22 11:45:12;;;;;;;2.58;0.93;;;;;;;;;;5078928;28;20419;-82
2023/12/22 11:47:38;;;;;;;2.80;1.00;;;;;;;;;;5079550;28;20380;-81
2023/12/22 11:50:04;;;;;;;4.07;0.90;;;;;;;;;;5079361;28;20494;-81
2023/12/22 11:52:31;;;;;;;2.22;0.90;;;;;;;;;;5066179;28;20381;-81
2023/12/22 11:54:58;;;;;;;2.72;0.88;;;;;;;;;;5057673;28;20409;-80
2023/12/22 11:57:37;;;;;;;2.87;0.90;;;;;;;;;;5058095;28;20454;-81
2023/12/22 12:00:08;;;;;;;2.13;0.70;;;;;;;;;;5061611;28;20391;-81
2023/12/22 12:02:35;;;;;;;3.15;1.08;;;;;;;;;;5077571;28;20414;-83
2023/12/22 12:05:02;;;;;;;1.50;0.70;;;;;;;;;;5077702;28;20433;-82
2023/12/22 12:07:40;;;;;;;1.83;0.85;;;;;;;;;;5077323;28;20383;-81
2023/12/22 12:10:07;;;;;;;1.48;0.60;;;;;;;;;;5076715;28;20442;-80
2023/12/22 12:12:34;;;;;;;2.03;0.88;;;;;;;;;;5076436;28;20738;-81
2023/12/22 12:15:07;;;;;;;1.13;0.70;;;;;;;;;;5076315;28;20380;-81
2023/12/22 12:17:33;;;;;;;1.70;0.50;;;;;;;;;;5076211;28;20376;-81
2023/12/22 12:19:59;;;;;;;1.20;0.50;;;;;;;;;;5077083;28;20384;-82
2023/12/22 12:22:26;;;;;;;1.95;0.63;;;;;;;;;;5076265;28;20372;-82
2023/12/22 12:24:52;;;;;;;1.65;0.70;;;;;;;;;;5076203;28;20454;-80
2023/12/22 12:27:21;;;;;;;2.10;0.75;;;;;;;;;;5076037;28;20419;-82
2023/12/22 12:29:47;;;;;;;1.52;0.50;;;;;;;;;;5076542;28;20402;-82
2023/12/22 12:32:16;;;;;;;1.30;0.68;;;;;;;;;;5076695;28;20788;-81
2023/12/22 12:34:46;;;;;;;2.00;0.90;;;;;;;;;;5078181;28;20383;-82
2023/12/22 12:37:12;;;;;;;1.77;0.70;;;;;;;;;;5078451;28;20383;-82
2023/12/22 12:39:40;;;;;;;1.50;0.60;;;;;;;;;;5079331;28;20745;-81
2023/12/22 12:42:08;;;;;;;1.55;0.60;;;;;;;;;;5077085;28;20380;-81
2023/12/22 12:44:35;;;;;;;0.80;0.50;;;;;;;;;;5077794;28;20770;-81
2023/12/22 12:47:11;;;;;;;1.03;0.67;;;;;;;;;;5077119;28;20380;-81
2023/12/22 12:49:37;;;;;;;1.65;0.70;;;;;;;;;;5075844;28;20414;-81
2023/12/22 12:52:03;;;;;;;1.63;1.10;;;;;;;;;;5076928;28;20507;-81
2023/12/22 12:54:29;;;;;;;1.00;0.80;;;;;;;;;;5077592;28;20372;-80
2023/12/22 12:56:55;;;;;;;1.38;0.60;;;;;;;;;;5076079;28;20470;-81
2023/12/22 12:59:21;;;;;;;2.40;0.80;;;;;;;;;;5076124;28;20376;-80
2023/12/22 13:01:48;;;;;;;1.20;0.60;;;;;;;;;;5076321;28;20383;-80
2023/12/22 13:04:15;;;;;;;1.67;0.80;;;;;;;;;;5077122;28;20387;-80
2023/12/22 13:06:45;;;;;;;1.02;0.50;;;;;;;;;;5075780;28;20387;-81
2023/12/22 13:09:12;;;;;;;1.77;0.80;;;;;;;;;;5075410;28;20810;-80
2023/12/22 13:11:38;;;;;;;2.13;0.73;;;;;;;;;;5076016;28;20498;-80
2023/12/22 13:14:06;;;;;;;1.67;0.65;;;;;;;;;;5075637;28;20377;-81
2023/12/22 13:16:33;;;;;;;2.45;0.90;;;;;;;;;;5057110;28;20380;-82
2023/12/22 13:18:59;;;;;;;1.70;0.80;;;;;;;;;;5076507;28;20411;-81
2023/12/22 13:21:26;;;;;;;1.42;1.00;;;;;;;;;;5075859;28;20376;-81
2023/12/22 13:24:10;;;;;;;1.88;0.82;;;;;;;;;;5075842;28;20425;-80
2023/12/22 13:26:37;;;;;;;0.90;0.50;;;;;;;;;;5076116;28;20473;-82
2023/12/22 13:29:03;;;;;;;0.63;0.50;;;;;;;;;;5076831;28;20411;-82
2023/12/22 13:31:31;;;;;;;0.63;0.50;;;;;;;;;;5076144;28;20399;-82
2023/12/22 13:33:57;;;;;;;0.80;0.60;;;;;;;;;;5075449;28;20384;-82
2023/12/22 13:36:23;;;;;;;0.85;0.40;;;;;;;;;;5076565;28;20375;-82
2023/12/22 13:38:49;;;;;;;0.70;0.30;;;;;;;;;;5076449;28;20376;-82
2023/12/22 13:41:18;;;;;;;0.70;0.40;;;;;;;;;;5076824;28;20391;-83
2023/12/22 13:43:46;;;;;;;0.52;0.38;;;;;;;;;;5072867;28;20933;-82
2023/12/22 13:46:14;;;;;;;1.05;0.40;;;;;;;;;;5075986;28;21182;-82
2023/12/22 13:48:40;;;;;;;0.80;0.30;;;;;;;;;;5077129;28;20421;-80
2023/12/22 13:51:06;;;;;;;0.20;0.20;;;;;;;;;;5078257;28;20835;-82
2023/12/22 13:53:32;;;;;;;0.30;0.30;;;;;;;;;;5079926;28;20419;-81
2023/12/22 13:55:59;;;;;;;0.30;0.30;;;;;;;;;;5080297;28;20426;-82
2023/12/22 13:58:25;;;;;;;0.30;0.20;;;;;;;;;;5080009;28;20387;-82
2023/12/22 14:00:52;;;;;;;0.90;0.30;;;;;;;;;;5060295;28;20383;-82
2023/12/22 14:03:21;;;;;;;0.50;0.30;;;;;;;;;;5078678;28;20453;-81
2023/12/22 14:05:48;;;;;;;0.20;0.20;;;;;;;;;;5079219;28;20383;-81
2023/12/22 14:08:14;;;;;;;1.20;0.40;;;;;;;;;;5080016;28;20416;-81
2023/12/22 14:10:45;;;;;;;0.20;0.20;;;;;;;;;;5080101;28;20407;-82
2023/12/22 14:13:11;;;;;;;0.30;0.30;;;;;;;;;;5079450;28;20382;-81
2023/12/22 14:15:37;;;;;;;0.30;0.30;;;;;;;;;;5080294;28;20446;-81
2023/12/22 14:18:03;;;;;;;0.20;0.20;;;;;;;;;;5082674;28;20404;-82
2023/12/22 14:20:29;;;;;;;0.30;0.30;;;;;;;;;;5084215;28;20462;-83
2023/12/22 14:22:55;;;;;;;0.45;0.40;;;;;;;;;;5085567;28;20380;-82
2023/12/22 14:25:21;;;;;;;0.20;0.20;;;;;;;;;;5083164;28;20394;-82
2023/12/22 14:27:47;;;;;;;0.20;0.20;;;;;;;;;;5083501;28;20834;-81
2023/12/22 14:30:14;;;;;;;0.90;0.30;;;;;;;;;;5080011;28;20400;-81
2023/12/22 14:32:40;;;;;;;0.20;0.20;;;;;;;;;;5079109;28;20380;-82
2023/12/22 14:35:06;;;;;;;0.40;0.20;;;;;;;;;;5062930;28;20930;-83
2023/12/22 14:37:32;;;;;;;0.40;0.20;;;;;;;;;;5080803;28;20392;-82
2023/12/22 14:39:58;;;;;;;0.32;0.30;;;;;;;;;;5079421;28;20384;-82